createdAt,value
2023-05-08T00:01:38.844Z,101771.75
2023-05-08T00:04:06.860Z,101770.72
2023-05-08T00:06:34.966Z,101765.25
2023-05-08T00:09:02.683Z,101762.13
2023-05-08T00:11:30.682Z,101770.59
2023-05-08T00:13:58.346Z,101771.06
2023-05-08T00:16:26.455Z,101769.03
2023-05-08T00:18:54.916Z,101768.94
2023-05-08T00:21:22.797Z,101769.69
2023-05-08T00:23:50.553Z,101768.66
2023-05-08T00:26:18.572Z,101766.78
2023-05-08T00:28:46.895Z,101772.97
2023-05-08T00:31:15.070Z,101773.47
2023-05-08T00:33:42.768Z,101781.84
2023-05-08T00:36:11.238Z,101777.44
2023-05-08T00:38:38.993Z,101781.84
2023-05-08T00:41:07.067Z,101784.56
2023-05-08T00:43:35.878Z,101779.25
2023-05-08T00:46:04.210Z,101785.72
2023-05-08T00:48:34.986Z,101792.34
2023-05-08T00:51:06.646Z,101792.16
2023-05-08T00:53:37.677Z,101793.69
2023-05-08T00:56:06.790Z,101796.47
2023-05-08T00:58:34.496Z,101795.34
2023-05-08T01:01:03.760Z,101800.31
2023-05-08T01:03:32.963Z,101795.16
2023-05-08T01:06:01.720Z,101802.44
2023-05-08T01:08:29.383Z,101807.31
2023-05-08T01:11:43.639Z,101807.09
2023-05-08T01:14:22.595Z,101804.72
2023-05-08T01:17:05.335Z,101807.78
2023-05-08T01:19:54.830Z,101818.84
2023-05-08T01:22:23.356Z,101827.22
2023-05-08T01:25:12.654Z,101824.59
2023-05-08T01:27:58.869Z,101820.81
2023-05-08T01:31:01.478Z,101820.31
2023-05-08T01:33:56.022Z,101820.03
2023-05-08T01:36:31.572Z,101812.91
2023-05-08T01:39:11.243Z,101816.22
2023-05-08T01:41:41.364Z,101823.94
2023-05-08T01:44:19.852Z,101823.31
2023-05-08T01:46:51.113Z,101827.59
2023-05-08T01:49:30.170Z,101826.97
2023-05-08T01:52:05.835Z,101813.59
2023-05-08T01:54:46.983Z,101825.06
2023-05-08T01:57:18.027Z,101826.72
2023-05-08T01:59:47.526Z,101837.91
2023-05-08T02:02:17.146Z,101826.66
2023-05-08T02:04:45.633Z,101830.38
2023-05-08T02:07:14.021Z,101827.69
2023-05-08T02:09:44.154Z,101826.59
2023-05-08T02:12:14.700Z,101835.81
2023-05-08T02:14:45.039Z,101828.75
2023-05-08T02:17:17.240Z,101833.09
2023-05-08T02:19:47.053Z,101833.28
2023-05-08T02:22:16.913Z,101830.97
2023-05-08T02:24:46.635Z,101834.72
2023-05-08T02:27:16.294Z,101838.78
2023-05-08T02:29:44.504Z,101835.97
2023-05-08T02:32:13.281Z,101843.75
2023-05-08T02:34:48.191Z,101839.38
2023-05-08T02:37:24.620Z,101839.03
2023-05-08T02:39:56.075Z,101841.78
2023-05-08T02:42:24.963Z,101842.31
2023-05-08T02:44:52.649Z,101839.16
2023-05-08T02:47:29.920Z,101847.69
2023-05-08T02:50:04.940Z,101842.88
2023-05-08T02:52:47.311Z,101850.25
2023-05-08T02:55:34.467Z,101848.66
2023-05-08T02:58:08.099Z,101848.63
2023-05-08T03:00:52.967Z,101849.06
2023-05-08T03:03:27.429Z,101849.72
2023-05-08T03:05:57.844Z,101846.66
2023-05-08T03:08:30.717Z,101852.03
2023-05-08T03:11:08.426Z,101845.75
2023-05-08T03:13:41.721Z,101858.69
2023-05-08T03:16:17.485Z,101860.06
2023-05-08T03:18:56.968Z,101857.59
2023-05-08T03:21:29.169Z,101857.78
2023-05-08T03:24:00.825Z,101856.31
2023-05-08T03:26:29.333Z,101854.78
2023-05-08T03:28:58.882Z,101856.72
2023-05-08T03:31:32.517Z,101859.66
2023-05-08T03:34:02.384Z,101855.38
2023-05-08T03:36:31.605Z,101854.00
2023-05-08T03:39:00.841Z,101851.28
2023-05-08T03:41:29.304Z,101868.41
2023-05-08T03:43:58.697Z,101861.84
2023-05-08T03:46:27.146Z,101866.41
2023-05-08T03:49:00.224Z,101868.34
2023-05-08T03:51:28.525Z,101865.78
2023-05-08T03:53:56.556Z,101865.72
2023-05-08T03:56:26.211Z,101863.66
2023-05-08T03:59:44.413Z,101869.22
2023-05-08T04:02:17.830Z,101865.09
2023-05-08T04:04:50.399Z,101868.63
2023-05-08T04:07:31.791Z,101864.56
2023-05-08T04:10:12.183Z,101862.00
2023-05-08T04:12:43.693Z,101869.63
2023-05-08T04:15:20.556Z,101870.19
2023-05-08T04:18:06.364Z,101866.00
2023-05-08T04:20:35.792Z,101876.84
2023-05-08T04:23:05.973Z,101884.34
2023-05-08T04:25:39.055Z,101883.13
2023-05-08T04:28:08.192Z,101888.53
2023-05-08T04:30:37.791Z,101900.78
2023-05-08T04:33:06.355Z,101894.03
2023-05-08T04:35:35.034Z,101898.72
2023-05-08T04:38:03.809Z,101892.03
2023-05-08T04:40:32.191Z,101897.78
2023-05-08T04:43:00.017Z,101898.81
2023-05-08T04:45:28.535Z,101903.19
2023-05-08T04:47:56.293Z,101911.28
2023-05-08T04:50:24.917Z,101912.28
2023-05-08T04:52:52.622Z,101918.22
2023-05-08T04:55:20.829Z,101917.72
2023-05-08T04:57:48.819Z,101925.38
2023-05-08T05:00:17.713Z,101916.41
2023-05-08T05:02:47.090Z,101922.50
2023-05-08T05:05:15.378Z,101927.66
2023-05-08T05:07:43.353Z,101921.66
2023-05-08T05:10:12.661Z,101927.25
2023-05-08T05:12:41.373Z,101924.47
2023-05-08T05:15:10.583Z,101924.88
2023-05-08T05:17:39.354Z,101927.75
2023-05-08T05:20:08.986Z,101919.38
2023-05-08T05:22:37.101Z,101930.44
2023-05-08T05:25:05.782Z,101927.44
2023-05-08T05:27:36.919Z,101939.66
2023-05-08T05:32:35.086Z,101936.13
2023-05-08T05:35:03.273Z,101940.97
2023-05-08T05:37:31.027Z,101942.31
2023-05-08T05:39:59.097Z,101939.97
2023-05-08T05:42:26.859Z,101948.34
2023-05-08T05:44:59.170Z,101951.56
2023-05-08T05:47:27.216Z,101951.78
2023-05-08T05:49:55.161Z,101945.16
2023-05-08T05:52:23.058Z,101945.38
2023-05-08T05:54:51.149Z,101946.00
2023-05-08T05:57:19.001Z,101943.34
2023-05-08T05:59:47.446Z,101945.94
2023-05-08T06:02:18.912Z,101949.78
2023-05-08T06:04:47.701Z,101945.81
2023-05-08T06:07:15.495Z,101959.13
2023-05-08T06:09:43.422Z,101948.28
2023-05-08T06:12:12.048Z,101952.34
2023-05-08T06:14:40.380Z,101953.47
2023-05-08T06:17:08.218Z,101959.16
2023-05-08T06:19:36.681Z,101950.75
2023-05-08T06:22:04.490Z,101953.09
2023-05-08T06:24:32.538Z,101953.50
2023-05-08T06:27:00.563Z,101968.63
2023-05-08T06:29:28.508Z,101959.41
2023-05-08T06:31:56.937Z,101956.66
2023-05-08T06:34:24.868Z,101956.94
2023-05-08T06:36:52.582Z,101959.81
2023-05-08T06:39:20.581Z,101957.28
2023-05-08T06:41:49.023Z,101952.78
2023-05-08T06:44:25.636Z,101949.88
2023-05-08T06:46:53.397Z,101953.03
2023-05-08T06:49:22.944Z,101950.50
2023-05-08T06:51:50.679Z,101957.25
2023-05-08T06:54:19.028Z,101953.97
2023-05-08T06:56:46.904Z,101956.28
2023-05-08T06:59:14.800Z,101952.25
2023-05-08T07:01:42.536Z,101954.84
2023-05-08T07:04:10.544Z,101954.81
2023-05-08T07:06:38.176Z,101950.16
2023-05-08T07:09:06.116Z,101956.72
2023-05-08T07:11:33.899Z,101945.03
2023-05-08T07:14:02.057Z,101943.03
2023-05-08T07:16:29.820Z,101950.19
2023-05-08T07:18:57.749Z,101947.41
2023-05-08T07:21:25.424Z,101947.25
2023-05-08T07:23:53.938Z,101949.91
2023-05-08T07:26:22.558Z,101952.56
2023-05-08T07:28:51.327Z,101940.84
2023-05-08T07:31:19.124Z,101957.00
2023-05-08T07:33:47.251Z,101950.63
2023-05-08T07:36:14.977Z,101941.06
2023-05-08T07:38:42.983Z,101945.38
2023-05-08T07:41:10.758Z,101954.75
2023-05-08T07:43:39.245Z,101945.47
2023-05-08T07:46:07.059Z,101946.84
2023-05-08T07:48:34.960Z,101944.94
2023-05-08T07:51:03.077Z,101948.66
2023-05-08T07:53:30.950Z,101943.91
2023-05-08T07:55:58.554Z,101934.91
2023-05-08T07:58:26.899Z,101946.16
2023-05-08T08:00:54.549Z,101942.19
2023-05-08T08:03:22.607Z,101942.34
2023-05-08T08:05:50.396Z,101936.47
2023-05-08T08:08:18.376Z,101942.19
2023-05-08T08:10:46.039Z,101938.09
2023-05-08T08:13:13.998Z,101937.16
2023-05-08T08:15:42.093Z,101940.09
2023-05-08T08:18:10.219Z,101941.00
2023-05-08T08:20:38.408Z,101937.41
2023-05-08T08:23:06.485Z,101932.28
2023-05-08T08:25:34.278Z,101927.41
2023-05-08T08:28:02.239Z,101928.22
2023-05-08T08:30:30.030Z,101931.06
2023-05-08T08:33:02.131Z,101933.16
2023-05-08T08:35:30.472Z,101934.34
2023-05-08T08:37:58.559Z,101926.00
2023-05-08T08:40:26.458Z,101932.00
2023-05-08T08:42:55.585Z,101919.91
2023-05-08T08:45:23.735Z,101925.34
2023-05-08T08:47:53.767Z,101920.22
2023-05-08T08:50:23.492Z,101915.13
2023-05-08T08:53:17.984Z,101916.44
2023-05-08T08:55:50.437Z,101906.84
2023-05-08T08:58:22.962Z,101912.56
2023-05-08T09:00:51.383Z,101916.22
2023-05-08T09:03:19.606Z,101907.63
2023-05-08T09:05:49.478Z,101911.25
2023-05-08T09:08:19.155Z,101903.56
2023-05-08T09:10:47.725Z,101917.47
2023-05-08T09:13:17.315Z,101912.81
2023-05-08T09:15:47.062Z,101907.66
2023-05-08T09:18:15.080Z,101907.66
2023-05-08T09:20:43.292Z,101906.81
2023-05-08T09:23:11.539Z,101900.47
2023-05-08T09:25:47.258Z,101901.69
2023-05-08T09:28:23.813Z,101901.72
2023-05-08T09:30:55.681Z,101911.47
2023-05-08T09:33:29.023Z,101900.38
2023-05-08T09:35:57.548Z,101899.59
2023-05-08T09:38:35.365Z,101894.63
2023-05-08T09:41:10.714Z,101898.56
2023-05-08T09:43:39.735Z,101896.41
2023-05-08T09:46:23.905Z,101895.81
2023-05-08T09:48:54.038Z,101895.16
2023-05-08T09:51:23.476Z,101894.22
2023-05-08T09:53:53.303Z,101893.19
2023-05-08T09:56:36.923Z,101882.22
2023-05-08T09:59:21.769Z,101882.66
2023-05-08T10:01:49.494Z,101883.94
2023-05-08T10:04:17.543Z,101874.53
2023-05-08T10:06:56.575Z,101884.84
2023-05-08T10:09:26.097Z,101877.13
2023-05-08T10:11:55.801Z,101884.31
2023-05-08T10:14:24.056Z,101879.53
2023-05-08T10:16:54.004Z,101880.97
2023-05-08T10:19:24.070Z,101873.25
2023-05-08T10:21:54.042Z,101872.00
2023-05-08T10:24:38.285Z,101860.00
2023-05-08T10:27:28.059Z,101864.38
2023-05-08T10:30:02.677Z,101862.78
2023-05-08T10:32:37.797Z,101856.28
2023-05-08T10:35:10.728Z,101853.97
2023-05-08T10:37:39.907Z,101854.03
2023-05-08T10:40:08.467Z,101858.69
2023-05-08T10:42:37.253Z,101854.56
2023-05-08T10:45:09.527Z,101866.47
2023-05-08T10:47:51.289Z,101857.22
2023-05-08T10:50:56.832Z,101853.25
2023-05-08T10:53:59.584Z,101848.16
2023-05-08T10:56:28.483Z,101851.47
2023-05-08T10:58:57.831Z,101841.97
2023-05-08T11:01:26.471Z,101852.03
2023-05-08T11:03:56.167Z,101837.88
2023-05-08T11:06:49.261Z,101838.13
2023-05-08T11:09:50.994Z,101845.59
2023-05-08T11:12:28.645Z,101840.72
2023-05-08T11:15:14.218Z,101832.22
2023-05-08T11:17:46.662Z,101832.84
2023-05-08T11:20:14.780Z,101829.16
2023-05-08T11:22:48.611Z,101831.06
2023-05-08T11:25:16.228Z,101828.47
2023-05-08T11:27:49.946Z,101821.63
2023-05-08T11:30:26.382Z,101818.44
2023-05-08T11:32:58.533Z,101823.38
2023-05-08T11:35:46.751Z,101819.66
2023-05-08T11:38:26.143Z,101808.09
2023-05-08T11:41:07.001Z,101822.47
2023-05-08T11:43:37.911Z,101817.44
2023-05-08T11:46:08.559Z,101824.75
2023-05-08T11:48:36.619Z,101819.25
2023-05-08T11:51:04.531Z,101815.91
2023-05-08T11:53:32.821Z,101807.75
2023-05-08T11:56:01.081Z,101816.38
2023-05-08T11:58:29.197Z,101809.72
2023-05-08T12:00:57.862Z,101814.38
2023-05-08T12:03:26.404Z,101800.88
2023-05-08T12:05:58.269Z,101813.41
2023-05-08T12:08:26.783Z,101805.34
2023-05-08T12:10:59.243Z,101803.50
2023-05-08T12:13:29.328Z,101811.69
2023-05-08T12:16:01.112Z,101801.50
2023-05-08T12:18:30.860Z,101803.22
2023-05-08T12:21:00.867Z,101796.13
2023-05-08T12:23:29.906Z,101798.91
2023-05-08T12:26:01.584Z,101793.53
2023-05-08T12:28:30.265Z,101789.22
2023-05-08T12:30:58.288Z,101790.94
2023-05-08T12:33:26.307Z,101783.34
2023-05-08T12:35:54.992Z,101776.28
2023-05-08T12:38:27.442Z,101789.56
2023-05-08T12:40:56.081Z,101785.50
2023-05-08T12:43:37.150Z,101784.69
2023-05-08T12:46:05.379Z,101781.66
2023-05-08T12:48:33.487Z,101771.31
2023-05-08T12:51:04.995Z,101779.25
2023-05-08T12:53:33.506Z,101779.38
2023-05-08T12:56:05.680Z,101776.16
2023-05-08T12:58:34.753Z,101773.56
2023-05-08T13:01:11.982Z,101766.34
2023-05-08T13:03:41.280Z,101775.28
2023-05-08T13:06:21.251Z,101765.13
2023-05-08T13:08:56.935Z,101767.88
2023-05-08T13:11:33.129Z,101752.72
2023-05-08T13:14:01.327Z,101757.06
2023-05-08T13:16:29.023Z,101753.41
2023-05-08T13:18:57.011Z,101757.72
2023-05-08T13:21:26.587Z,101746.31
2023-05-08T13:23:56.898Z,101737.34
2023-05-08T13:26:25.669Z,101736.63
2023-05-08T13:28:56.192Z,101740.81
2023-05-08T13:31:24.254Z,101733.47
2023-05-08T13:33:52.171Z,101731.22
2023-05-08T13:36:20.710Z,101733.75
2023-05-08T13:38:48.781Z,101725.56
2023-05-08T13:41:16.337Z,101740.13
2023-05-08T13:43:45.520Z,101727.19
2023-05-08T13:46:13.300Z,101728.91
2023-05-08T13:48:41.156Z,101711.75
2023-05-08T13:51:08.673Z,101725.81
2023-05-08T13:53:36.504Z,101733.19
2023-05-08T13:56:04.186Z,101730.91
2023-05-08T13:58:32.081Z,101726.03
2023-05-08T14:01:07.522Z,101729.59
2023-05-08T14:03:42.055Z,101722.38
2023-05-08T14:06:09.644Z,101721.19
2023-05-08T14:08:45.195Z,101722.38
2023-05-08T14:11:14.229Z,101714.19
2023-05-08T14:13:45.038Z,101725.25
2023-05-08T14:16:14.398Z,101725.34
2023-05-08T14:18:42.584Z,101715.63
2023-05-08T14:21:10.436Z,101722.41
2023-05-08T14:23:39.007Z,101715.59
2023-05-08T14:26:06.576Z,101721.72
2023-05-08T14:28:34.557Z,101710.69
2023-05-08T14:31:02.211Z,101726.25
2023-05-08T14:33:30.281Z,101713.75
2023-05-08T14:35:57.829Z,101704.91
2023-05-08T14:38:25.709Z,101709.72
2023-05-08T14:40:56.310Z,101701.84
2023-05-08T14:43:24.491Z,101714.59
2023-05-08T14:45:52.066Z,101718.00
2023-05-08T14:48:19.939Z,101707.28
2023-05-08T14:50:47.598Z,101703.06
2023-05-08T14:53:15.673Z,101707.78
2023-05-08T14:55:43.650Z,101701.56
2023-05-08T14:58:11.760Z,101705.94
2023-05-08T15:00:39.757Z,101703.72
2023-05-08T15:03:07.847Z,101705.19
2023-05-08T15:05:35.678Z,101709.44
2023-05-08T15:08:05.089Z,101710.59
2023-05-08T15:10:32.725Z,101709.78
2023-05-08T15:13:00.817Z,101711.50
2023-05-08T15:15:28.453Z,101708.63
2023-05-08T15:17:56.304Z,101710.34
2023-05-08T15:20:24.058Z,101704.50
2023-05-08T15:22:51.951Z,101706.66
2023-05-08T15:25:19.634Z,101707.72
2023-05-08T15:27:52.574Z,101712.13
2023-05-08T15:30:21.119Z,101708.78
2023-05-08T15:32:49.313Z,101707.59
2023-05-08T15:35:17.086Z,101712.47
2023-05-08T15:37:45.105Z,101706.91
2023-05-08T15:40:13.135Z,101706.09
2023-05-08T15:42:41.028Z,101702.88
2023-05-08T15:45:09.169Z,101701.06
2023-05-08T15:47:37.006Z,101709.88
2023-05-08T15:50:04.882Z,101698.16
2023-05-08T15:52:32.722Z,101704.13
2023-05-08T15:55:00.373Z,101696.44
2023-05-08T15:57:28.252Z,101704.59
2023-05-08T15:59:55.740Z,101700.91
2023-05-08T16:02:23.736Z,101698.28
2023-05-08T16:04:51.653Z,101696.44
2023-05-08T16:07:19.556Z,101697.47
2023-05-08T16:09:47.331Z,101685.84
2023-05-08T16:12:15.253Z,101690.66
2023-05-08T16:14:42.939Z,101695.28
2023-05-08T16:17:10.921Z,101689.75
2023-05-08T16:19:39.724Z,101694.94
2023-05-08T16:22:07.807Z,101684.78
2023-05-08T16:24:35.322Z,101692.25
2023-05-08T16:27:03.497Z,101691.19
2023-05-08T16:29:31.085Z,101691.34
2023-05-08T16:31:59.227Z,101682.34
2023-05-08T16:34:26.859Z,101685.91
2023-05-08T16:36:54.700Z,101690.53
2023-05-08T16:39:22.356Z,101681.25
2023-05-08T16:41:50.314Z,101689.28
2023-05-08T16:44:17.908Z,101694.97
2023-05-08T16:46:45.818Z,101692.47
2023-05-08T16:49:14.254Z,101689.53
2023-05-08T16:51:42.068Z,101690.47
2023-05-08T16:54:09.707Z,101695.06
2023-05-08T16:56:37.559Z,101695.31
2023-05-08T16:59:06.683Z,101684.88
2023-05-08T17:01:34.889Z,101689.66
2023-05-08T17:04:02.567Z,101689.91
2023-05-08T17:06:30.423Z,101696.00
2023-05-08T17:08:57.940Z,101692.28
2023-05-08T17:11:25.863Z,101689.50
2023-05-08T17:13:53.442Z,101696.69
2023-05-08T17:16:21.464Z,101691.88
2023-05-08T17:18:49.062Z,101693.84
2023-05-08T17:21:16.911Z,101692.97
2023-05-08T17:23:45.760Z,101689.47
2023-05-08T17:26:13.899Z,101689.72
2023-05-08T17:28:41.564Z,101687.69
2023-05-08T17:31:09.660Z,101696.34
2023-05-08T17:33:37.831Z,101697.47
2023-05-08T17:36:06.185Z,101693.09
2023-05-08T17:38:36.356Z,101696.00
2023-05-08T17:41:04.336Z,101698.94
2023-05-08T17:43:32.096Z,101697.59
2023-05-08T17:46:00.138Z,101705.88
2023-05-08T17:48:27.872Z,101705.59
2023-05-08T17:50:55.798Z,101704.13
2023-05-08T17:53:23.467Z,101708.03
2023-05-08T17:55:51.509Z,101714.19
2023-05-08T17:58:19.190Z,101706.50
2023-05-08T18:00:47.210Z,101706.91
2023-05-08T18:03:15.111Z,101718.66
2023-05-08T18:05:43.704Z,101715.50
2023-05-08T18:08:11.474Z,101717.56
2023-05-08T18:10:39.667Z,101716.81
2023-05-08T18:13:07.719Z,101717.94
2023-05-08T18:15:38.940Z,101723.34
2023-05-08T18:18:06.819Z,101717.53
2023-05-08T18:20:35.043Z,101726.38
2023-05-08T18:23:02.696Z,101726.44
2023-05-08T18:25:30.731Z,101724.03
2023-05-08T18:27:59.038Z,101739.84
2023-05-08T18:30:27.045Z,101740.81
2023-05-08T18:32:54.817Z,101747.03
2023-05-08T18:35:22.929Z,101743.69
2023-05-08T18:37:50.567Z,101751.50
2023-05-08T18:40:18.568Z,101749.84
2023-05-08T18:42:46.302Z,101748.22
2023-05-08T18:45:14.322Z,101751.75
2023-05-08T18:47:42.074Z,101752.69
2023-05-08T18:50:10.703Z,101758.75
2023-05-08T18:52:38.922Z,101752.75
2023-05-08T18:55:07.437Z,101764.97
2023-05-08T18:57:35.317Z,101764.06
2023-05-08T19:00:04.171Z,101767.59
2023-05-08T19:02:31.904Z,101766.75
2023-05-08T19:05:00.837Z,101772.81
2023-05-08T19:07:28.504Z,101771.97
2023-05-08T19:09:56.589Z,101779.78
2023-05-08T19:12:24.416Z,101775.44
2023-05-08T19:14:54.004Z,101777.19
2023-05-08T19:17:22.097Z,101771.06
2023-05-08T19:19:53.354Z,101771.06
2023-05-08T19:22:21.126Z,101772.81
2023-05-08T19:24:49.065Z,101773.63
2023-05-08T19:27:16.856Z,101784.03
2023-05-08T19:29:44.811Z,101775.31
2023-05-08T19:32:12.533Z,101769.22
2023-05-08T19:34:40.571Z,101770.97
2023-05-08T19:37:08.300Z,101771.78
2023-05-08T19:39:36.285Z,101768.31
2023-05-08T19:42:04.083Z,101770.03
2023-05-08T19:44:32.940Z,101769.94
2023-05-08T19:47:03.630Z,101772.50
2023-05-08T19:49:32.030Z,101775.06
2023-05-08T19:51:59.717Z,101770.72
2023-05-08T19:54:28.620Z,101758.63
2023-05-08T19:56:56.691Z,101766.31
2023-05-08T19:59:24.958Z,101763.69
2023-05-08T20:01:53.905Z,101761.06
2023-05-08T20:04:22.111Z,101755.88
2023-05-08T20:06:49.971Z,101758.47
2023-05-08T20:09:17.991Z,101752.38
2023-05-08T20:11:47.132Z,101758.38
2023-05-08T20:14:15.153Z,101754.81
2023-05-08T20:16:43.560Z,101751.22
2023-05-08T20:19:11.799Z,101747.69
2023-05-08T20:21:39.555Z,101754.66
2023-05-08T20:24:07.672Z,101751.94
2023-05-08T20:26:35.440Z,101762.22
2023-05-08T20:29:03.517Z,101750.97
2023-05-08T20:31:31.332Z,101755.16
2023-05-08T20:33:59.802Z,101762.81
2023-05-08T20:36:27.619Z,101755.84
2023-05-08T20:38:55.607Z,101759.41
2023-05-08T20:41:23.225Z,101755.16
2023-05-08T20:43:51.292Z,101753.31
2023-05-08T20:46:19.097Z,101753.38
2023-05-08T20:48:47.251Z,101755.91
2023-05-08T20:51:15.981Z,101769.81
2023-05-08T20:53:43.988Z,101758.38
2023-05-08T20:56:11.948Z,101760.97
2023-05-08T20:58:40.008Z,101755.75
2023-05-08T21:01:07.766Z,101752.09
2023-05-08T21:03:35.820Z,101758.19
2023-05-08T21:06:03.600Z,101760.94
2023-05-08T21:08:31.549Z,101753.91
2023-05-08T21:11:00.890Z,101757.19
2023-05-08T21:13:28.828Z,101755.56
2023-05-08T21:15:56.575Z,101753.06
2023-05-08T21:18:24.703Z,101753.72
2023-05-08T21:20:52.518Z,101755.34
2023-05-08T21:23:21.002Z,101753.53
2023-05-08T21:25:49.749Z,101750.06
2023-05-08T21:28:17.947Z,101761.97
2023-05-08T21:30:46.352Z,101755.69
2023-05-08T21:33:14.682Z,101753.16
2023-05-08T21:35:43.437Z,101752.41
2023-05-08T21:38:14.441Z,101759.38
2023-05-08T21:40:42.166Z,101754.16
2023-05-08T21:43:10.248Z,101750.50
2023-05-08T21:45:37.988Z,101753.00
2023-05-08T21:48:06.190Z,101752.84
2023-05-08T21:50:34.022Z,101753.66
2023-05-08T21:53:02.049Z,101750.03
2023-05-08T21:55:32.157Z,101754.25
2023-05-08T21:58:00.430Z,101750.88
2023-05-08T22:00:28.197Z,101756.78
2023-05-08T22:02:56.315Z,101755.94
2023-05-08T22:05:24.521Z,101759.38
2023-05-08T22:07:52.646Z,101757.56
2023-05-08T22:10:21.696Z,101754.03
2023-05-08T22:12:49.825Z,101750.41
2023-05-08T22:15:28.954Z,101755.53
2023-05-08T22:17:58.740Z,101752.97
2023-05-08T22:20:26.734Z,101757.25
2023-05-08T22:22:54.837Z,101752.97
2023-05-08T22:25:22.581Z,101751.97
2023-05-08T22:27:50.786Z,101751.13
2023-05-08T22:30:18.609Z,101750.28
2023-05-08T22:32:52.899Z,101752.03
2023-05-08T22:35:22.287Z,101735.53
2023-05-08T22:37:50.615Z,101750.06
2023-05-08T22:40:18.449Z,101751.69
2023-05-08T22:42:46.651Z,101751.72
2023-05-08T22:45:15.053Z,101743.72
2023-05-08T22:47:43.483Z,101743.66
2023-05-08T22:50:11.900Z,101742.81
2023-05-08T22:52:40.333Z,101733.97
2023-05-08T22:55:08.441Z,101745.25
2023-05-08T22:57:36.608Z,101746.84
2023-05-08T23:00:06.094Z,101745.19
2023-05-08T23:02:35.094Z,101750.25
2023-05-08T23:05:03.915Z,101746.00
2023-05-08T23:07:31.928Z,101752.22
2023-05-08T23:09:59.541Z,101749.59
2023-05-08T23:12:27.595Z,101746.94
2023-05-08T23:14:55.282Z,101744.13
2023-05-08T23:17:23.494Z,101749.19
2023-05-08T23:19:51.229Z,101750.91
2023-05-08T23:22:19.106Z,101746.25
2023-05-08T23:24:46.869Z,101753.72
2023-05-08T23:27:14.900Z,101743.94
2023-05-08T23:29:42.617Z,101746.44
2023-05-08T23:32:10.519Z,101742.63
2023-05-08T23:34:38.113Z,101741.56
2023-05-08T23:37:06.365Z,101743.16
2023-05-08T23:39:37.811Z,101749.22
2023-05-08T23:42:05.848Z,101741.63
2023-05-08T23:44:33.470Z,101744.22
2023-05-08T23:47:01.640Z,101741.56
2023-05-08T23:49:29.327Z,101747.47
2023-05-08T23:51:57.277Z,101743.06
2023-05-08T23:54:25.709Z,101740.53
2023-05-08T23:56:53.735Z,101739.31
2023-05-08T23:59:21.511Z,101739.38
